sensor_id;sensor_type;location;lat;lon;timestamp;temperature;humidity
27707;DHT22;36332;51.384;0.040;2023-02-11T00:01:29;8.90;99.90
27707;DHT22;36332;51.384;0.040;2023-02-11T00:03:57;8.90;99.90
27707;DHT22;36332;51.384;0.040;2023-02-11T00:06:26;8.90;99.90
27707;DHT22;36332;51.384;0.040;2023-02-11T00:08:55;8.90;99.90
27707;DHT22;36332;51.384;0.040;2023-02-11T00:11:24;8.90;99.90
27707;DHT22;36332;51.384;0.040;2023-02-11T00:13:52;8.90;99.90
27707;DHT22;36332;51.384;0.040;2023-02-11T00:16:20;8.90;99.90
27707;DHT22;36332;51.384;0.040;2023-02-11T00:18:48;9.00;99.90
27707;DHT22;36332;51.384;0.040;2023-02-11T00:21:22;8.90;99.90
27707;DHT22;36332;51.384;0.040;2023-02-11T00:23:50;8.90;99.90
27707;DHT22;36332;51.384;0.040;2023-02-11T00:26:20;8.90;99.90
27707;DHT22;36332;51.384;0.040;2023-02-11T00:28:49;9.00;99.90
27707;DHT22;36332;51.384;0.040;2023-02-11T00:31:19;9.00;99.90
27707;DHT22;36332;51.384;0.040;2023-02-11T00:33:48;9.00;99.90
27707;DHT22;36332;51.384;0.040;2023-02-11T00:36:19;9.00;99.90
27707;DHT22;36332;51.384;0.040;2023-02-11T00:38:48;9.00;99.90
27707;DHT22;36332;51.384;0.040;2023-02-11T00:41:16;9.00;99.90
27707;DHT22;36332;51.384;0.040;2023-02-11T00:43:44;9.00;99.90
27707;DHT22;36332;51.384;0.040;2023-02-11T00:46:12;9.10;99.90
27707;DHT22;36332;51.384;0.040;2023-02-11T00:48:40;9.00;99.90
27707;DHT22;36332;51.384;0.040;2023-02-11T00:51:08;8.70;99.90
27707;DHT22;36332;51.384;0.040;2023-02-11T00:53:36;9.10;99.90
27707;DHT22;36332;51.384;0.040;2023-02-11T00:56:04;9.00;99.90
27707;DHT22;36332;51.384;0.040;2023-02-11T00:58:33;9.00;99.90
27707;DHT22;36332;51.384;0.040;2023-02-11T01:01:01;9.00;99.90
27707;DHT22;36332;51.384;0.040;2023-02-11T01:03:29;9.00;99.90
27707;DHT22;36332;51.384;0.040;2023-02-11T01:05:57;9.00;99.90
27707;DHT22;36332;51.384;0.040;2023-02-11T01:08:24;9.10;99.90
27707;DHT22;36332;51.384;0.040;2023-02-11T01:10:56;9.00;99.90
27707;DHT22;36332;51.384;0.040;2023-02-11T01:13:25;9.00;99.90
27707;DHT22;36332;51.384;0.040;2023-02-11T01:15:54;9.00;99.90
27707;DHT22;36332;51.384;0.040;2023-02-11T01:18:23;9.00;99.90
27707;DHT22;36332;51.384;0.040;2023-02-11T01:20:52;9.00;99.90
27707;DHT22;36332;51.384;0.040;2023-02-11T01:23:20;9.00;99.90
27707;DHT22;36332;51.384;0.040;2023-02-11T01:25:48;9.00;99.90
27707;DHT22;36332;51.384;0.040;2023-02-11T01:28:19;9.00;99.90
27707;DHT22;36332;51.384;0.040;2023-02-11T01:30:46;9.00;99.90
27707;DHT22;36332;51.384;0.040;2023-02-11T01:33:14;8.90;99.90
27707;DHT22;36332;51.384;0.040;2023-02-11T01:35:43;9.10;99.90
27707;DHT22;36332;51.384;0.040;2023-02-11T01:38:19;9.00;99.90
27707;DHT22;36332;51.384;0.040;2023-02-11T01:41:08;9.00;99.90
27707;DHT22;36332;51.384;0.040;2023-02-11T01:43:42;9.00;99.90
27707;DHT22;36332;51.384;0.040;2023-02-11T01:46:35;9.00;99.90
27707;DHT22;36332;51.384;0.040;2023-02-11T01:49:08;9.00;99.90
27707;DHT22;36332;51.384;0.040;2023-02-11T01:54:20;9.00;99.90
27707;DHT22;36332;51.384;0.040;2023-02-11T01:57:10;9.00;99.90
27707;DHT22;36332;51.384;0.040;2023-02-11T02:00:04;9.00;99.90
27707;DHT22;36332;51.384;0.040;2023-02-11T02:03:17;9.00;99.90
27707;DHT22;36332;51.384;0.040;2023-02-11T02:11:42;9.00;99.90
27707;DHT22;36332;51.384;0.040;2023-02-11T02:14:10;9.00;99.90
27707;DHT22;36332;51.384;0.040;2023-02-11T02:16:38;8.90;99.90
27707;DHT22;36332;51.384;0.040;2023-02-11T02:19:18;8.90;99.90
27707;DHT22;36332;51.384;0.040;2023-02-11T02:27:24;9.00;99.90
27707;DHT22;36332;51.384;0.040;2023-02-11T02:30:02;9.00;99.90
27707;DHT22;36332;51.384;0.040;2023-02-11T02:36:17;9.00;99.90
27707;DHT22;36332;51.384;0.040;2023-02-11T02:41:22;9.00;99.90
27707;DHT22;36332;51.384;0.040;2023-02-11T02:43:51;9.00;99.90
27707;DHT22;36332;51.384;0.040;2023-02-11T02:46:26;9.00;99.90
27707;DHT22;36332;51.384;0.040;2023-02-11T02:48:55;9.00;99.90
27707;DHT22;36332;51.384;0.040;2023-02-11T02:57:09;9.00;99.90
27707;DHT22;36332;51.384;0.040;2023-02-11T03:08:09;9.00;99.90
27707;DHT22;36332;51.384;0.040;2023-02-11T03:10:42;9.00;99.90
27707;DHT22;36332;51.384;0.040;2023-02-11T03:13:10;9.00;99.90
27707;DHT22;36332;51.384;0.040;2023-02-11T03:15:43;9.00;99.90
27707;DHT22;36332;51.384;0.040;2023-02-11T03:18:15;9.00;99.90
27707;DHT22;36332;51.384;0.040;2023-02-11T03:20:45;9.00;99.90
27707;DHT22;36332;51.384;0.040;2023-02-11T03:26:01;9.00;99.90
27707;DHT22;36332;51.384;0.040;2023-02-11T03:31:17;9.00;99.90
27707;DHT22;36332;51.384;0.040;2023-02-11T03:36:27;8.90;99.90
27707;DHT22;36332;51.384;0.040;2023-02-11T03:38:59;9.00;99.90
27707;DHT22;36332;51.384;0.040;2023-02-11T03:41:29;9.00;99.90
27707;DHT22;36332;51.384;0.040;2023-02-11T03:43:58;9.00;99.90
27707;DHT22;36332;51.384;0.040;2023-02-11T03:46:30;9.00;99.90
27707;DHT22;36332;51.384;0.040;2023-02-11T03:49:03;8.90;99.90
27707;DHT22;36332;51.384;0.040;2023-02-11T03:51:32;8.90;99.90
27707;DHT22;36332;51.384;0.040;2023-02-11T03:54:01;9.00;99.90
27707;DHT22;36332;51.384;0.040;2023-02-11T03:56:38;8.90;99.90
27707;DHT22;36332;51.384;0.040;2023-02-11T03:59:07;8.90;99.90
27707;DHT22;36332;51.384;0.040;2023-02-11T04:01:35;8.80;99.90
27707;DHT22;36332;51.384;0.040;2023-02-11T04:04:03;8.80;99.90
27707;DHT22;36332;51.384;0.040;2023-02-11T04:06:30;8.80;99.90
27707;DHT22;36332;51.384;0.040;2023-02-11T04:08:58;8.70;99.90
27707;DHT22;36332;51.384;0.040;2023-02-11T04:11:25;8.70;99.90
27707;DHT22;36332;51.384;0.040;2023-02-11T04:13:53;8.70;99.90
27707;DHT22;36332;51.384;0.040;2023-02-11T04:16:20;8.60;99.90
27707;DHT22;36332;51.384;0.040;2023-02-11T04:18:48;8.60;99.90
27707;DHT22;36332;51.384;0.040;2023-02-11T04:21:16;8.60;99.90
27707;DHT22;36332;51.384;0.040;2023-02-11T04:23:43;8.60;99.90
27707;DHT22;36332;51.384;0.040;2023-02-11T04:26:11;8.60;99.90
27707;DHT22;36332;51.384;0.040;2023-02-11T04:28:38;8.60;99.90
27707;DHT22;36332;51.384;0.040;2023-02-11T04:31:06;8.50;99.90
27707;DHT22;36332;51.384;0.040;2023-02-11T04:33:33;8.50;99.90
27707;DHT22;36332;51.384;0.040;2023-02-11T04:36:01;8.40;99.90
27707;DHT22;36332;51.384;0.040;2023-02-11T04:38:28;8.40;99.90
27707;DHT22;36332;51.384;0.040;2023-02-11T04:40:57;8.50;99.90
27707;DHT22;36332;51.384;0.040;2023-02-11T04:43:26;8.50;99.90
27707;DHT22;36332;51.384;0.040;2023-02-11T04:45:57;8.40;99.90
27707;DHT22;36332;51.384;0.040;2023-02-11T04:48:25;8.40;99.90
27707;DHT22;36332;51.384;0.040;2023-02-11T04:50:52;8.50;99.90
27707;DHT22;36332;51.384;0.040;2023-02-11T04:53:20;8.50;99.90
27707;DHT22;36332;51.384;0.040;2023-02-11T04:55:48;8.50;99.90
27707;DHT22;36332;51.384;0.040;2023-02-11T04:58:18;8.50;99.90
27707;DHT22;36332;51.384;0.040;2023-02-11T05:00:45;8.60;99.90
27707;DHT22;36332;51.384;0.040;2023-02-11T05:03:13;8.50;99.90
27707;DHT22;36332;51.384;0.040;2023-02-11T05:05:41;8.60;99.90
27707;DHT22;36332;51.384;0.040;2023-02-11T05:08:09;8.60;99.90
27707;DHT22;36332;51.384;0.040;2023-02-11T05:10:37;8.70;99.90
27707;DHT22;36332;51.384;0.040;2023-02-11T05:13:05;8.60;99.90
27707;DHT22;36332;51.384;0.040;2023-02-11T05:15:32;8.60;99.90
27707;DHT22;36332;51.384;0.040;2023-02-11T05:18:00;8.70;99.90
27707;DHT22;36332;51.384;0.040;2023-02-11T05:20:27;8.70;99.90
27707;DHT22;36332;51.384;0.040;2023-02-11T05:22:55;8.70;99.90
27707;DHT22;36332;51.384;0.040;2023-02-11T05:25:22;8.70;99.90
27707;DHT22;36332;51.384;0.040;2023-02-11T05:27:50;8.70;99.90
27707;DHT22;36332;51.384;0.040;2023-02-11T05:30:17;8.70;99.90
27707;DHT22;36332;51.384;0.040;2023-02-11T05:32:45;8.80;99.90
27707;DHT22;36332;51.384;0.040;2023-02-11T05:35:12;8.70;99.90
27707;DHT22;36332;51.384;0.040;2023-02-11T05:37:40;8.80;99.90
27707;DHT22;36332;51.384;0.040;2023-02-11T05:40:08;8.80;99.90
27707;DHT22;36332;51.384;0.040;2023-02-11T05:42:35;8.80;99.90
27707;DHT22;36332;51.384;0.040;2023-02-11T05:45:03;8.80;99.90
27707;DHT22;36332;51.384;0.040;2023-02-11T05:47:31;8.80;99.90
27707;DHT22;36332;51.384;0.040;2023-02-11T05:49:58;8.80;99.90
27707;DHT22;36332;51.384;0.040;2023-02-11T05:52:26;8.80;99.90
27707;DHT22;36332;51.384;0.040;2023-02-11T05:54:53;8.80;99.90
27707;DHT22;36332;51.384;0.040;2023-02-11T05:57:21;8.80;99.90
27707;DHT22;36332;51.384;0.040;2023-02-11T05:59:49;8.80;99.90
27707;DHT22;36332;51.384;0.040;2023-02-11T06:02:16;8.70;99.90
27707;DHT22;36332;51.384;0.040;2023-02-11T06:04:44;8.80;99.90
27707;DHT22;36332;51.384;0.040;2023-02-11T06:07:11;8.80;99.90
27707;DHT22;36332;51.384;0.040;2023-02-11T06:09:39;8.90;99.90
27707;DHT22;36332;51.384;0.040;2023-02-11T06:12:06;8.80;99.90
27707;DHT22;36332;51.384;0.040;2023-02-11T06:14:34;8.90;99.90
27707;DHT22;36332;51.384;0.040;2023-02-11T06:17:02;8.90;99.90
27707;DHT22;36332;51.384;0.040;2023-02-11T06:19:30;8.90;99.90
27707;DHT22;36332;51.384;0.040;2023-02-11T06:21:58;8.90;99.90
27707;DHT22;36332;51.384;0.040;2023-02-11T06:24:25;8.90;99.90
27707;DHT22;36332;51.384;0.040;2023-02-11T06:27:13;8.90;99.90
27707;DHT22;36332;51.384;0.040;2023-02-11T06:29:40;8.90;99.90
27707;DHT22;36332;51.384;0.040;2023-02-11T06:32:08;8.90;99.90
27707;DHT22;36332;51.384;0.040;2023-02-11T06:34:55;8.90;99.90
27707;DHT22;36332;51.384;0.040;2023-02-11T06:37:23;8.90;99.90
27707;DHT22;36332;51.384;0.040;2023-02-11T06:39:51;9.00;99.90
27707;DHT22;36332;51.384;0.040;2023-02-11T06:42:18;9.00;99.90
27707;DHT22;36332;51.384;0.040;2023-02-11T06:44:46;8.90;99.90
27707;DHT22;36332;51.384;0.040;2023-02-11T06:47:13;9.10;99.90
27707;DHT22;36332;51.384;0.040;2023-02-11T06:49:41;11.10;99.90
27707;DHT22;36332;51.384;0.040;2023-02-11T06:52:08;8.90;99.90
27707;DHT22;36332;51.384;0.040;2023-02-11T06:54:36;9.00;99.90
27707;DHT22;36332;51.384;0.040;2023-02-11T06:57:04;9.00;99.90
27707;DHT22;36332;51.384;0.040;2023-02-11T06:59:31;9.00;99.90
27707;DHT22;36332;51.384;0.040;2023-02-11T07:01:59;9.00;99.90
27707;DHT22;36332;51.384;0.040;2023-02-11T07:04:26;9.00;99.90
27707;DHT22;36332;51.384;0.040;2023-02-11T07:06:54;9.00;99.90
27707;DHT22;36332;51.384;0.040;2023-02-11T07:09:21;9.00;99.90
27707;DHT22;36332;51.384;0.040;2023-02-11T07:11:49;9.00;99.90
27707;DHT22;36332;51.384;0.040;2023-02-11T07:14:16;9.10;99.90
27707;DHT22;36332;51.384;0.040;2023-02-11T07:16:44;9.00;99.90
27707;DHT22;36332;51.384;0.040;2023-02-11T07:19:11;9.10;99.90
27707;DHT22;36332;51.384;0.040;2023-02-11T07:21:39;9.10;99.90
27707;DHT22;36332;51.384;0.040;2023-02-11T07:24:08;9.10;99.90
27707;DHT22;36332;51.384;0.040;2023-02-11T07:26:37;9.10;99.90
27707;DHT22;36332;51.384;0.040;2023-02-11T07:29:05;9.10;99.90
27707;DHT22;36332;51.384;0.040;2023-02-11T07:31:32;9.10;99.90
27707;DHT22;36332;51.384;0.040;2023-02-11T07:34:01;9.10;99.90
27707;DHT22;36332;51.384;0.040;2023-02-11T07:36:29;9.10;99.90
27707;DHT22;36332;51.384;0.040;2023-02-11T07:38:58;9.10;99.90
27707;DHT22;36332;51.384;0.040;2023-02-11T07:41:27;9.10;99.90
27707;DHT22;36332;51.384;0.040;2023-02-11T07:43:55;9.10;99.90
27707;DHT22;36332;51.384;0.040;2023-02-11T07:46:25;9.10;99.90
27707;DHT22;36332;51.384;0.040;2023-02-11T07:48:54;9.10;99.90
27707;DHT22;36332;51.384;0.040;2023-02-11T07:51:25;9.10;99.90
27707;DHT22;36332;51.384;0.040;2023-02-11T07:53:54;9.10;99.90
27707;DHT22;36332;51.384;0.040;2023-02-11T07:56:22;9.20;99.90
27707;DHT22;36332;51.384;0.040;2023-02-11T07:58:50;9.20;99.90
27707;DHT22;36332;51.384;0.040;2023-02-11T08:01:23;9.20;99.90
27707;DHT22;36332;51.384;0.040;2023-02-11T08:03:52;9.20;99.90
27707;DHT22;36332;51.384;0.040;2023-02-11T08:06:24;9.20;99.90
27707;DHT22;36332;51.384;0.040;2023-02-11T08:08:52;9.20;99.90
27707;DHT22;36332;51.384;0.040;2023-02-11T08:13:49;9.30;99.90
27707;DHT22;36332;51.384;0.040;2023-02-11T08:16:28;9.30;99.90
27707;DHT22;36332;51.384;0.040;2023-02-11T08:18:59;9.30;99.90
27707;DHT22;36332;51.384;0.040;2023-02-11T08:21:28;9.30;99.90
27707;DHT22;36332;51.384;0.040;2023-02-11T08:23:56;9.30;99.90
27707;DHT22;36332;51.384;0.040;2023-02-11T08:26:27;9.30;99.90
27707;DHT22;36332;51.384;0.040;2023-02-11T08:28:56;9.40;99.90
27707;DHT22;36332;51.384;0.040;2023-02-11T08:31:30;9.40;99.90
27707;DHT22;36332;51.384;0.040;2023-02-11T08:33:59;9.40;99.90
27707;DHT22;36332;51.384;0.040;2023-02-11T08:36:32;9.40;99.90
27707;DHT22;36332;51.384;0.040;2023-02-11T08:39:04;9.50;99.90
27707;DHT22;36332;51.384;0.040;2023-02-11T08:41:47;9.50;99.90
27707;DHT22;36332;51.384;0.040;2023-02-11T08:44:17;9.50;99.90
27707;DHT22;36332;51.384;0.040;2023-02-11T08:46:46;9.50;99.90
27707;DHT22;36332;51.384;0.040;2023-02-11T08:49:14;9.60;99.90
27707;DHT22;36332;51.384;0.040;2023-02-11T08:51:42;9.60;99.90
27707;DHT22;36332;51.384;0.040;2023-02-11T08:54:10;9.70;99.90
27707;DHT22;36332;51.384;0.040;2023-02-11T08:56:39;9.60;99.90
27707;DHT22;36332;51.384;0.040;2023-02-11T08:59:07;9.70;99.90
27707;DHT22;36332;51.384;0.040;2023-02-11T09:01:35;9.80;99.90
27707;DHT22;36332;51.384;0.040;2023-02-11T09:04:04;9.80;99.90
27707;DHT22;36332;51.384;0.040;2023-02-11T09:06:32;9.80;99.90
27707;DHT22;36332;51.384;0.040;2023-02-11T09:09:00;9.90;99.90
27707;DHT22;36332;51.384;0.040;2023-02-11T09:11:33;9.90;99.90
27707;DHT22;36332;51.384;0.040;2023-02-11T09:14:02;10.00;99.90
27707;DHT22;36332;51.384;0.040;2023-02-11T09:16:32;10.00;99.90
27707;DHT22;36332;51.384;0.040;2023-02-11T09:19:02;10.10;99.90
27707;DHT22;36332;51.384;0.040;2023-02-11T09:21:30;10.10;99.90
27707;DHT22;36332;51.384;0.040;2023-02-11T09:23:58;10.10;99.90
27707;DHT22;36332;51.384;0.040;2023-02-11T09:26:28;10.10;99.90
27707;DHT22;36332;51.384;0.040;2023-02-11T09:28:57;10.20;99.90
27707;DHT22;36332;51.384;0.040;2023-02-11T09:31:26;10.10;99.90
27707;DHT22;36332;51.384;0.040;2023-02-11T09:33:57;10.20;99.90
27707;DHT22;36332;51.384;0.040;2023-02-11T09:36:34;10.20;99.90
27707;DHT22;36332;51.384;0.040;2023-02-11T09:39:05;10.20;99.90
27707;DHT22;36332;51.384;0.040;2023-02-11T09:44:22;10.30;99.90
27707;DHT22;36332;51.384;0.040;2023-02-11T09:47:01;10.30;99.90
27707;DHT22;36332;51.384;0.040;2023-02-11T09:49:39;10.30;99.90
27707;DHT22;36332;51.384;0.040;2023-02-11T09:54:58;10.50;99.90
27707;DHT22;36332;51.384;0.040;2023-02-11T09:57:35;10.50;99.90
27707;DHT22;36332;51.384;0.040;2023-02-11T10:00:17;10.50;99.90
27707;DHT22;36332;51.384;0.040;2023-02-11T10:11:10;10.70;99.90
27707;DHT22;36332;51.384;0.040;2023-02-11T10:22:15;10.80;99.90
27707;DHT22;36332;51.384;0.040;2023-02-11T10:24:51;10.90;99.90
27707;DHT22;36332;51.384;0.040;2023-02-11T10:27:26;10.90;99.90
27707;DHT22;36332;51.384;0.040;2023-02-11T10:32:38;10.90;99.90
27707;DHT22;36332;51.384;0.040;2023-02-11T10:35:17;10.90;99.90
27707;DHT22;36332;51.384;0.040;2023-02-11T10:37:46;10.90;99.90
27707;DHT22;36332;51.384;0.040;2023-02-11T10:40:19;10.90;99.90
27707;DHT22;36332;51.384;0.040;2023-02-11T10:42:50;11.00;99.90
27707;DHT22;36332;51.384;0.040;2023-02-11T10:45:54;10.90;99.90
27707;DHT22;36332;51.384;0.040;2023-02-11T10:48:47;11.00;99.90
27707;DHT22;36332;51.384;0.040;2023-02-11T10:51:27;11.10;99.90
27707;DHT22;36332;51.384;0.040;2023-02-11T10:54:11;11.10;99.90
27707;DHT22;36332;51.384;0.040;2023-02-11T10:56:48;11.10;99.90
27707;DHT22;36332;51.384;0.040;2023-02-11T10:59:27;11.10;99.90
27707;DHT22;36332;51.384;0.040;2023-02-11T11:02:00;11.10;99.90
27707;DHT22;36332;51.384;0.040;2023-02-11T11:04:33;11.10;99.90
27707;DHT22;36332;51.384;0.040;2023-02-11T11:12:28;11.10;99.90
27707;DHT22;36332;51.384;0.040;2023-02-11T11:17:37;11.10;99.90
27707;DHT22;36332;51.384;0.040;2023-02-11T11:20:24;11.10;99.90
27707;DHT22;36332;51.384;0.040;2023-02-11T11:23:26;11.10;99.90
27707;DHT22;36332;51.384;0.040;2023-02-11T11:26:13;11.10;99.90
27707;DHT22;36332;51.384;0.040;2023-02-11T11:31:53;11.20;99.90
27707;DHT22;36332;51.384;0.040;2023-02-11T11:36:59;11.30;99.90
27707;DHT22;36332;51.384;0.040;2023-02-11T11:39:34;11.30;99.90
27707;DHT22;36332;51.384;0.040;2023-02-11T11:42:04;11.20;99.90
27707;DHT22;36332;51.384;0.040;2023-02-11T11:44:35;11.30;99.90
27707;DHT22;36332;51.384;0.040;2023-02-11T11:52:46;11.40;99.90
27707;DHT22;36332;51.384;0.040;2023-02-11T11:55:40;11.40;99.90
27707;DHT22;36332;51.384;0.040;2023-02-11T11:58:20;11.40;99.90
27707;DHT22;36332;51.384;0.040;2023-02-11T12:15:28;11.50;99.90
27707;DHT22;36332;51.384;0.040;2023-02-11T12:20:35;11.60;99.90
27707;DHT22;36332;51.384;0.040;2023-02-11T12:26:11;11.50;99.90
27707;DHT22;36332;51.384;0.040;2023-02-11T12:46:29;11.60;99.90
27707;DHT22;36332;51.384;0.040;2023-02-11T13:05:26;11.70;99.90
27707;DHT22;36332;51.384;0.040;2023-02-11T13:08:05;11.80;99.90
27707;DHT22;36332;51.384;0.040;2023-02-11T13:10:39;11.80;99.90
27707;DHT22;36332;51.384;0.040;2023-02-11T13:13:21;11.80;99.90
27707;DHT22;36332;51.384;0.040;2023-02-11T13:16:02;11.80;99.90
27707;DHT22;36332;51.384;0.040;2023-02-11T13:18:44;11.80;99.90
27707;DHT22;36332;51.384;0.040;2023-02-11T13:21:23;11.70;99.90
27707;DHT22;36332;51.384;0.040;2023-02-11T13:24:01;11.70;99.90
27707;DHT22;36332;51.384;0.040;2023-02-11T13:29:30;11.70;99.90
27707;DHT22;36332;51.384;0.040;2023-02-11T13:32:09;11.80;99.90
27707;DHT22;36332;51.384;0.040;2023-02-11T13:37:36;11.70;99.90
27707;DHT22;36332;51.384;0.040;2023-02-11T13:42:50;11.60;99.90
27707;DHT22;36332;51.384;0.040;2023-02-11T13:45:42;11.60;99.90
27707;DHT22;36332;51.384;0.040;2023-02-11T13:48:29;11.60;99.90
27707;DHT22;36332;51.384;0.040;2023-02-11T13:56:22;11.60;99.90
27707;DHT22;36332;51.384;0.040;2023-02-11T13:58:50;11.60;99.90
27707;DHT22;36332;51.384;0.040;2023-02-11T14:01:41;11.60;99.90
27707;DHT22;36332;51.384;0.040;2023-02-11T14:04:23;11.60;99.90
27707;DHT22;36332;51.384;0.040;2023-02-11T14:13:29;11.60;99.90
27707;DHT22;36332;51.384;0.040;2023-02-11T14:26:52;11.50;99.90
27707;DHT22;36332;51.384;0.040;2023-02-11T14:41:22;11.50;99.90
27707;DHT22;36332;51.384;0.040;2023-02-11T14:44:05;11.40;99.90
27707;DHT22;36332;51.384;0.040;2023-02-11T14:46:37;11.40;99.90
27707;DHT22;36332;51.384;0.040;2023-02-11T14:49:05;11.40;99.90
27707;DHT22;36332;51.384;0.040;2023-02-11T14:51:38;11.30;99.90
27707;DHT22;36332;51.384;0.040;2023-02-11T14:54:22;11.30;99.90
27707;DHT22;36332;51.384;0.040;2023-02-11T14:57:14;11.30;99.90
27707;DHT22;36332;51.384;0.040;2023-02-11T15:00:18;11.30;99.90
27707;DHT22;36332;51.384;0.040;2023-02-11T15:02:46;11.20;99.90
27707;DHT22;36332;51.384;0.040;2023-02-11T15:07:51;11.20;99.90
27707;DHT22;36332;51.384;0.040;2023-02-11T15:10:40;11.20;99.90
27707;DHT22;36332;51.384;0.040;2023-02-11T15:13:19;11.20;99.90
27707;DHT22;36332;51.384;0.040;2023-02-11T15:15:49;11.10;99.90
27707;DHT22;36332;51.384;0.040;2023-02-11T15:18:20;11.10;99.90
27707;DHT22;36332;51.384;0.040;2023-02-11T15:20:49;11.20;99.90
27707;DHT22;36332;51.384;0.040;2023-02-11T15:23:24;11.10;99.90
27707;DHT22;36332;51.384;0.040;2023-02-11T15:25:52;11.20;99.90
27707;DHT22;36332;51.384;0.040;2023-02-11T15:28:25;11.20;99.90
27707;DHT22;36332;51.384;0.040;2023-02-11T15:31:03;11.20;99.90
27707;DHT22;36332;51.384;0.040;2023-02-11T15:33:31;11.20;99.90
27707;DHT22;36332;51.384;0.040;2023-02-11T15:36:00;11.10;99.90
27707;DHT22;36332;51.384;0.040;2023-02-11T15:38:28;11.10;99.90
27707;DHT22;36332;51.384;0.040;2023-02-11T15:41:02;11.10;99.90
27707;DHT22;36332;51.384;0.040;2023-02-11T15:43:40;11.00;99.90
27707;DHT22;36332;51.384;0.040;2023-02-11T15:46:10;11.00;99.90
27707;DHT22;36332;51.384;0.040;2023-02-11T15:48:58;11.10;99.90
27707;DHT22;36332;51.384;0.040;2023-02-11T15:51:30;11.00;99.90
27707;DHT22;36332;51.384;0.040;2023-02-11T15:54:07;11.00;99.90
27707;DHT22;36332;51.384;0.040;2023-02-11T15:56:42;11.00;99.90
27707;DHT22;36332;51.384;0.040;2023-02-11T16:04:35;11.00;99.90
27707;DHT22;36332;51.384;0.040;2023-02-11T16:07:02;10.90;99.90
27707;DHT22;36332;51.384;0.040;2023-02-11T16:09:33;10.90;99.90
27707;DHT22;36332;51.384;0.040;2023-02-11T16:12:04;10.90;99.90
27707;DHT22;36332;51.384;0.040;2023-02-11T16:14:34;10.90;99.90
27707;DHT22;36332;51.384;0.040;2023-02-11T16:19:46;10.90;99.90
27707;DHT22;36332;51.384;0.040;2023-02-11T16:22:17;10.80;99.90
27707;DHT22;36332;51.384;0.040;2023-02-11T16:24:46;10.90;99.90
27707;DHT22;36332;51.384;0.040;2023-02-11T16:27:27;10.70;99.90
27707;DHT22;36332;51.384;0.040;2023-02-11T16:29:57;10.80;99.90
27707;DHT22;36332;51.384;0.040;2023-02-11T16:32:27;10.70;99.90
27707;DHT22;36332;51.384;0.040;2023-02-11T16:34:58;10.70;99.90
27707;DHT22;36332;51.384;0.040;2023-02-11T16:37:27;10.70;99.90
27707;DHT22;36332;51.384;0.040;2023-02-11T16:39:55;10.70;99.90
27707;DHT22;36332;51.384;0.040;2023-02-11T16:42:24;10.70;99.90
27707;DHT22;36332;51.384;0.040;2023-02-11T16:44:51;10.70;99.90
27707;DHT22;36332;51.384;0.040;2023-02-11T16:47:27;10.70;99.90
27707;DHT22;36332;51.384;0.040;2023-02-11T16:49:55;10.60;99.90
27707;DHT22;36332;51.384;0.040;2023-02-11T16:52:23;10.60;99.90
27707;DHT22;36332;51.384;0.040;2023-02-11T16:54:51;10.60;99.90
27707;DHT22;36332;51.384;0.040;2023-02-11T16:57:21;10.60;99.90
27707;DHT22;36332;51.384;0.040;2023-02-11T16:59:50;10.50;99.90
27707;DHT22;36332;51.384;0.040;2023-02-11T17:02:26;10.60;99.90
27707;DHT22;36332;51.384;0.040;2023-02-11T17:04:54;10.40;99.90
27707;DHT22;36332;51.384;0.040;2023-02-11T17:07:22;10.50;99.90
27707;DHT22;36332;51.384;0.040;2023-02-11T17:09:50;10.40;99.90
27707;DHT22;36332;51.384;0.040;2023-02-11T17:12:20;10.40;99.90
27707;DHT22;36332;51.384;0.040;2023-02-11T17:14:54;10.40;99.90
27707;DHT22;36332;51.384;0.040;2023-02-11T17:17:21;10.40;99.90
27707;DHT22;36332;51.384;0.040;2023-02-11T17:19:50;10.40;99.90
27707;DHT22;36332;51.384;0.040;2023-02-11T17:22:17;10.40;99.90
27707;DHT22;36332;51.384;0.040;2023-02-11T17:24:45;10.40;99.90
27707;DHT22;36332;51.384;0.040;2023-02-11T17:27:12;10.30;99.90
27707;DHT22;36332;51.384;0.040;2023-02-11T17:29:41;10.40;99.90
27707;DHT22;36332;51.384;0.040;2023-02-11T17:32:09;10.30;99.90
27707;DHT22;36332;51.384;0.040;2023-02-11T17:34:36;10.40;99.90
27707;DHT22;36332;51.384;0.040;2023-02-11T17:37:04;10.30;99.90
27707;DHT22;36332;51.384;0.040;2023-02-11T17:39:38;10.40;99.90
27707;DHT22;36332;51.384;0.040;2023-02-11T17:42:06;10.40;99.90
27707;DHT22;36332;51.384;0.040;2023-02-11T17:44:35;10.30;99.90
27707;DHT22;36332;51.384;0.040;2023-02-11T17:47:02;10.40;99.90
27707;DHT22;36332;51.384;0.040;2023-02-11T17:49:30;10.30;99.90
27707;DHT22;36332;51.384;0.040;2023-02-11T17:51:57;10.30;99.90
27707;DHT22;36332;51.384;0.040;2023-02-11T17:54:25;10.30;99.90
27707;DHT22;36332;51.384;0.040;2023-02-11T17:56:53;10.30;99.90
27707;DHT22;36332;51.384;0.040;2023-02-11T17:59:25;10.30;99.90
27707;DHT22;36332;51.384;0.040;2023-02-11T18:01:54;10.30;99.90
27707;DHT22;36332;51.384;0.040;2023-02-11T18:04:22;10.30;99.90
27707;DHT22;36332;51.384;0.040;2023-02-11T18:06:50;10.30;99.90
27707;DHT22;36332;51.384;0.040;2023-02-11T18:09:19;10.30;99.90
27707;DHT22;36332;51.384;0.040;2023-02-11T18:11:47;10.20;99.90
27707;DHT22;36332;51.384;0.040;2023-02-11T18:14:17;10.20;99.90
27707;DHT22;36332;51.384;0.040;2023-02-11T18:16:45;10.20;99.90
27707;DHT22;36332;51.384;0.040;2023-02-11T18:19:15;10.20;99.90
27707;DHT22;36332;51.384;0.040;2023-02-11T18:21:43;10.20;99.90
27707;DHT22;36332;51.384;0.040;2023-02-11T18:24:10;10.20;99.90
27707;DHT22;36332;51.384;0.040;2023-02-11T18:26:38;10.20;99.90
27707;DHT22;36332;51.384;0.040;2023-02-11T18:29:05;10.20;99.90
27707;DHT22;36332;51.384;0.040;2023-02-11T18:31:33;10.20;99.90
27707;DHT22;36332;51.384;0.040;2023-02-11T18:34:07;10.10;99.90
27707;DHT22;36332;51.384;0.040;2023-02-11T18:36:37;10.00;99.90
27707;DHT22;36332;51.384;0.040;2023-02-11T18:39:04;10.10;99.90
27707;DHT22;36332;51.384;0.040;2023-02-11T18:41:32;10.10;99.90
27707;DHT22;36332;51.384;0.040;2023-02-11T18:44:00;10.10;99.90
27707;DHT22;36332;51.384;0.040;2023-02-11T18:46:29;10.10;99.90
27707;DHT22;36332;51.384;0.040;2023-02-11T18:48:57;10.10;99.90
27707;DHT22;36332;51.384;0.040;2023-02-11T18:51:25;10.10;99.90
27707;DHT22;36332;51.384;0.040;2023-02-11T18:53:53;10.10;99.90
27707;DHT22;36332;51.384;0.040;2023-02-11T18:56:22;10.10;99.90
27707;DHT22;36332;51.384;0.040;2023-02-11T18:58:49;10.10;99.90
27707;DHT22;36332;51.384;0.040;2023-02-11T19:01:22;10.10;99.90
27707;DHT22;36332;51.384;0.040;2023-02-11T19:03:55;10.10;99.90
27707;DHT22;36332;51.384;0.040;2023-02-11T19:06:29;10.10;99.90
27707;DHT22;36332;51.384;0.040;2023-02-11T19:08:59;10.10;99.90
27707;DHT22;36332;51.384;0.040;2023-02-11T19:11:29;10.10;99.90
27707;DHT22;36332;51.384;0.040;2023-02-11T19:14:25;10.10;99.90
27707;DHT22;36332;51.384;0.040;2023-02-11T19:16:55;10.10;99.90
27707;DHT22;36332;51.384;0.040;2023-02-11T19:19:29;10.10;99.90
27707;DHT22;36332;51.384;0.040;2023-02-11T19:21:58;10.10;99.90
27707;DHT22;36332;51.384;0.040;2023-02-11T19:24:27;10.10;99.90